Sierra, Nevada
Current Conditions -  °F | °C
As of 7:15 PM on Saturday 22 Nov 2014 (Local Time) from KRTS Reporting Station
Clear Clear  
Wind Chill:   Ceiling: Unl
Heat Index:   Visibility: 10mi
Dew Point: -3°   Wind: 7mph
Humidity: 65%   Direction: 310°NW
Pressure: 30.16"   Gusts: NA
Location:  39.7378°N, 119.889°W
Report Text: KRTS 230315Z AUTO 31006KT 10SM CLR 03/M03 A3016 RMK AO2
Loading
Personal Weather Stations






























Interactive Weather Map New forecast layout! Learn more

10-Day Weather Forecast

Advertisements
Track Severe Weather on mobile